sensor_id;sensor_type;location;lat;lon;timestamp;P1;durP1;ratioP1;P2;durP2;ratioP2
9102;SDS011;4587;51.434;6.788;2023-07-22T00:00:31;8.90;;;8.10;;
9102;SDS011;4587;51.434;6.788;2023-07-22T00:02:56;8.37;;;7.57;;
9102;SDS011;4587;51.434;6.788;2023-07-22T00:05:22;10.67;;;7.77;;
9102;SDS011;4587;51.434;6.788;2023-07-22T00:07:51;9.60;;;8.40;;
9102;SDS011;4587;51.434;6.788;2023-07-22T00:10:17;9.73;;;8.60;;
9102;SDS011;4587;51.434;6.788;2023-07-22T00:12:43;8.90;;;7.90;;
9102;SDS011;4587;51.434;6.788;2023-07-22T00:15:09;9.67;;;8.50;;
9102;SDS011;4587;51.434;6.788;2023-07-22T00:17:37;9.33;;;8.30;;
9102;SDS011;4587;51.434;6.788;2023-07-22T00:20:05;8.57;;;7.67;;
9102;SDS011;4587;51.434;6.788;2023-07-22T00:22:31;10.50;;;8.00;;
9102;SDS011;4587;51.434;6.788;2023-07-22T00:24:57;9.50;;;8.50;;
9102;SDS011;4587;51.434;6.788;2023-07-22T00:27:25;8.83;;;7.93;;
9102;SDS011;4587;51.434;6.788;2023-07-22T00:29:50;13.67;;;8.47;;
9102;SDS011;4587;51.434;6.788;2023-07-22T00:32:16;9.37;;;8.30;;
9102;SDS011;4587;51.434;6.788;2023-07-22T00:34:42;8.10;;;7.20;;
9102;SDS011;4587;51.434;6.788;2023-07-22T00:37:07;8.70;;;7.40;;
9102;SDS011;4587;51.434;6.788;2023-07-22T00:39:33;7.93;;;7.13;;
9102;SDS011;4587;51.434;6.788;2023-07-22T00:41:59;8.80;;;7.90;;
9102;SDS011;4587;51.434;6.788;2023-07-22T00:44:25;8.40;;;7.53;;
9102;SDS011;4587;51.434;6.788;2023-07-22T00:46:52;9.40;;;7.50;;
9102;SDS011;4587;51.434;6.788;2023-07-22T00:49:21;10.37;;;7.93;;
9102;SDS011;4587;51.434;6.788;2023-07-22T00:51:48;8.70;;;7.80;;
9102;SDS011;4587;51.434;6.788;2023-07-22T00:54:14;9.10;;;7.70;;
9102;SDS011;4587;51.434;6.788;2023-07-22T00:56:40;8.43;;;7.63;;
9102;SDS011;4587;51.434;6.788;2023-07-22T00:59:06;9.00;;;7.90;;
9102;SDS011;4587;51.434;6.788;2023-07-22T01:01:32;8.63;;;7.63;;
9102;SDS011;4587;51.434;6.788;2023-07-22T01:03:58;9.47;;;7.70;;
9102;SDS011;4587;51.434;6.788;2023-07-22T01:06:24;9.40;;;7.10;;
9102;SDS011;4587;51.434;6.788;2023-07-22T01:08:51;8.37;;;7.50;;
9102;SDS011;4587;51.434;6.788;2023-07-22T01:11:16;8.63;;;7.83;;
9102;SDS011;4587;51.434;6.788;2023-07-22T01:13:42;9.67;;;8.13;;
9102;SDS011;4587;51.434;6.788;2023-07-22T01:16:08;13.83;;;8.40;;
9102;SDS011;4587;51.434;6.788;2023-07-22T01:18:33;8.60;;;7.60;;
9102;SDS011;4587;51.434;6.788;2023-07-22T01:21:00;10.47;;;8.33;;
9102;SDS011;4587;51.434;6.788;2023-07-22T01:23:26;9.57;;;7.67;;
9102;SDS011;4587;51.434;6.788;2023-07-22T01:25:51;10.03;;;8.23;;
9102;SDS011;4587;51.434;6.788;2023-07-22T01:28:17;9.57;;;7.17;;
9102;SDS011;4587;51.434;6.788;2023-07-22T01:30:45;9.17;;;8.23;;
9102;SDS011;4587;51.434;6.788;2023-07-22T01:33:11;9.03;;;7.80;;
9102;SDS011;4587;51.434;6.788;2023-07-22T01:35:36;8.47;;;7.67;;
9102;SDS011;4587;51.434;6.788;2023-07-22T01:38:02;9.13;;;8.10;;
9102;SDS011;4587;51.434;6.788;2023-07-22T01:40:27;11.00;;;8.23;;
9102;SDS011;4587;51.434;6.788;2023-07-22T01:42:53;8.87;;;7.40;;
9102;SDS011;4587;51.434;6.788;2023-07-22T01:45:19;8.80;;;7.90;;
9102;SDS011;4587;51.434;6.788;2023-07-22T01:47:44;8.93;;;7.97;;
9102;SDS011;4587;51.434;6.788;2023-07-22T01:50:10;8.73;;;7.83;;
9102;SDS011;4587;51.434;6.788;2023-07-22T01:52:35;8.63;;;7.70;;
9102;SDS011;4587;51.434;6.788;2023-07-22T01:55:01;9.03;;;7.47;;
9102;SDS011;4587;51.434;6.788;2023-07-22T01:57:30;8.47;;;7.70;;
9102;SDS011;4587;51.434;6.788;2023-07-22T01:59:56;8.73;;;7.83;;
9102;SDS011;4587;51.434;6.788;2023-07-22T02:02:22;8.77;;;7.70;;
9102;SDS011;4587;51.434;6.788;2023-07-22T02:04:47;9.43;;;8.47;;
9102;SDS011;4587;51.434;6.788;2023-07-22T02:07:13;9.20;;;8.13;;
9102;SDS011;4587;51.434;6.788;2023-07-22T02:09:38;11.90;;;7.70;;
9102;SDS011;4587;51.434;6.788;2023-07-22T02:12:04;8.90;;;8.00;;
9102;SDS011;4587;51.434;6.788;2023-07-22T02:14:31;8.63;;;7.80;;
9102;SDS011;4587;51.434;6.788;2023-07-22T02:16:56;9.50;;;8.07;;
9102;SDS011;4587;51.434;6.788;2023-07-22T02:19:22;10.47;;;8.37;;
9102;SDS011;4587;51.434;6.788;2023-07-22T02:21:48;9.67;;;7.87;;
9102;SDS011;4587;51.434;6.788;2023-07-22T02:24:14;10.53;;;8.33;;
9102;SDS011;4587;51.434;6.788;2023-07-22T02:26:40;8.70;;;7.80;;
9102;SDS011;4587;51.434;6.788;2023-07-22T02:29:06;11.80;;;8.43;;
9102;SDS011;4587;51.434;6.788;2023-07-22T02:31:32;11.70;;;8.00;;
9102;SDS011;4587;51.434;6.788;2023-07-22T02:33:58;10.97;;;8.43;;
9102;SDS011;4587;51.434;6.788;2023-07-22T02:36:23;11.23;;;8.77;;
9102;SDS011;4587;51.434;6.788;2023-07-22T02:38:49;12.23;;;8.57;;
9102;SDS011;4587;51.434;6.788;2023-07-22T02:41:14;9.67;;;8.07;;
9102;SDS011;4587;51.434;6.788;2023-07-22T02:43:40;11.37;;;8.73;;
9102;SDS011;4587;51.434;6.788;2023-07-22T02:46:06;9.20;;;8.30;;
9102;SDS011;4587;51.434;6.788;2023-07-22T02:48:33;9.73;;;8.10;;
9102;SDS011;4587;51.434;6.788;2023-07-22T02:51:05;8.90;;;7.73;;
9102;SDS011;4587;51.434;6.788;2023-07-22T02:53:32;10.53;;;7.77;;
9102;SDS011;4587;51.434;6.788;2023-07-22T02:55:58;11.07;;;7.50;;
9102;SDS011;4587;51.434;6.788;2023-07-22T02:58:24;14.10;;;8.10;;
9102;SDS011;4587;51.434;6.788;2023-07-22T03:00:50;12.47;;;8.20;;
9102;SDS011;4587;51.434;6.788;2023-07-22T03:03:16;9.20;;;7.70;;
9102;SDS011;4587;51.434;6.788;2023-07-22T03:05:41;12.43;;;7.90;;
9102;SDS011;4587;51.434;6.788;2023-07-22T03:08:07;8.63;;;7.73;;
9102;SDS011;4587;51.434;6.788;2023-07-22T03:10:32;9.77;;;7.47;;
9102;SDS011;4587;51.434;6.788;2023-07-22T03:12:58;10.53;;;7.40;;
9102;SDS011;4587;51.434;6.788;2023-07-22T03:15:24;9.47;;;7.30;;
9102;SDS011;4587;51.434;6.788;2023-07-22T03:17:51;12.37;;;7.70;;
9102;SDS011;4587;51.434;6.788;2023-07-22T03:20:16;11.33;;;7.60;;
9102;SDS011;4587;51.434;6.788;2023-07-22T03:22:44;12.67;;;7.70;;
9102;SDS011;4587;51.434;6.788;2023-07-22T03:25:11;9.13;;;7.70;;
9102;SDS011;4587;51.434;6.788;2023-07-22T03:27:38;9.53;;;7.00;;
9102;SDS011;4587;51.434;6.788;2023-07-22T03:30:04;10.00;;;6.90;;
9102;SDS011;4587;51.434;6.788;2023-07-22T03:32:39;11.37;;;7.40;;
9102;SDS011;4587;51.434;6.788;2023-07-22T03:35:08;9.70;;;7.50;;
9102;SDS011;4587;51.434;6.788;2023-07-22T03:37:37;9.30;;;7.30;;
9102;SDS011;4587;51.434;6.788;2023-07-22T03:40:03;8.13;;;6.70;;
9102;SDS011;4587;51.434;6.788;2023-07-22T03:42:38;10.77;;;7.50;;
9102;SDS011;4587;51.434;6.788;2023-07-22T03:45:04;11.37;;;7.73;;
9102;SDS011;4587;51.434;6.788;2023-07-22T03:47:31;8.87;;;7.03;;
9102;SDS011;4587;51.434;6.788;2023-07-22T03:49:57;9.43;;;7.17;;
9102;SDS011;4587;51.434;6.788;2023-07-22T03:52:22;9.07;;;6.97;;
9102;SDS011;4587;51.434;6.788;2023-07-22T03:54:48;9.53;;;7.37;;
9102;SDS011;4587;51.434;6.788;2023-07-22T03:57:14;9.27;;;6.83;;
9102;SDS011;4587;51.434;6.788;2023-07-22T03:59:39;11.13;;;7.47;;
9102;SDS011;4587;51.434;6.788;2023-07-22T04:02:05;10.27;;;7.33;;
9102;SDS011;4587;51.434;6.788;2023-07-22T04:04:31;10.17;;;7.50;;
9102;SDS011;4587;51.434;6.788;2023-07-22T04:06:56;9.27;;;7.03;;
9102;SDS011;4587;51.434;6.788;2023-07-22T04:09:22;11.03;;;7.20;;
9102;SDS011;4587;51.434;6.788;2023-07-22T04:11:47;9.63;;;7.03;;
9102;SDS011;4587;51.434;6.788;2023-07-22T04:14:13;9.17;;;7.30;;
9102;SDS011;4587;51.434;6.788;2023-07-22T04:16:39;10.53;;;6.93;;
9102;SDS011;4587;51.434;6.788;2023-07-22T04:19:04;11.53;;;7.33;;
9102;SDS011;4587;51.434;6.788;2023-07-22T04:21:30;14.73;;;7.60;;
9102;SDS011;4587;51.434;6.788;2023-07-22T04:23:55;9.30;;;7.50;;
9102;SDS011;4587;51.434;6.788;2023-07-22T04:26:21;8.23;;;7.10;;
9102;SDS011;4587;51.434;6.788;2023-07-22T04:28:47;13.03;;;7.90;;
9102;SDS011;4587;51.434;6.788;2023-07-22T04:31:12;11.40;;;7.47;;
9102;SDS011;4587;51.434;6.788;2023-07-22T04:33:38;10.93;;;6.77;;
9102;SDS011;4587;51.434;6.788;2023-07-22T04:36:03;8.90;;;7.23;;
9102;SDS011;4587;51.434;6.788;2023-07-22T04:38:29;10.90;;;7.00;;
9102;SDS011;4587;51.434;6.788;2023-07-22T04:40:54;11.47;;;7.10;;
9102;SDS011;4587;51.434;6.788;2023-07-22T04:43:20;10.50;;;6.80;;
9102;SDS011;4587;51.434;6.788;2023-07-22T04:45:46;8.43;;;6.97;;
9102;SDS011;4587;51.434;6.788;2023-07-22T04:48:19;10.87;;;7.17;;
9102;SDS011;4587;51.434;6.788;2023-07-22T04:50:45;8.57;;;6.67;;
9102;SDS011;4587;51.434;6.788;2023-07-22T04:53:11;10.60;;;7.00;;
9102;SDS011;4587;51.434;6.788;2023-07-22T04:55:38;7.63;;;6.80;;
9102;SDS011;4587;51.434;6.788;2023-07-22T04:58:04;8.77;;;7.00;;
9102;SDS011;4587;51.434;6.788;2023-07-22T05:00:30;9.57;;;6.80;;
9102;SDS011;4587;51.434;6.788;2023-07-22T05:02:56;8.30;;;6.70;;
9102;SDS011;4587;51.434;6.788;2023-07-22T05:05:22;9.63;;;6.90;;
9102;SDS011;4587;51.434;6.788;2023-07-22T05:07:47;9.37;;;7.20;;
9102;SDS011;4587;51.434;6.788;2023-07-22T05:10:17;6.97;;;6.27;;
9102;SDS011;4587;51.434;6.788;2023-07-22T05:12:44;7.77;;;6.60;;
9102;SDS011;4587;51.434;6.788;2023-07-22T05:15:10;9.30;;;6.40;;
9102;SDS011;4587;51.434;6.788;2023-07-22T05:17:37;8.80;;;6.63;;
9102;SDS011;4587;51.434;6.788;2023-07-22T05:20:03;9.80;;;6.20;;
9102;SDS011;4587;51.434;6.788;2023-07-22T05:22:31;9.87;;;6.40;;
9102;SDS011;4587;51.434;6.788;2023-07-22T05:24:57;8.07;;;6.17;;
9102;SDS011;4587;51.434;6.788;2023-07-22T05:27:23;10.07;;;6.40;;
9102;SDS011;4587;51.434;6.788;2023-07-22T05:29:49;9.17;;;6.20;;
9102;SDS011;4587;51.434;6.788;2023-07-22T05:32:15;7.13;;;6.27;;
9102;SDS011;4587;51.434;6.788;2023-07-22T05:34:41;6.63;;;5.83;;
9102;SDS011;4587;51.434;6.788;2023-07-22T05:37:06;8.70;;;6.70;;
9102;SDS011;4587;51.434;6.788;2023-07-22T05:39:32;11.33;;;6.73;;
9102;SDS011;4587;51.434;6.788;2023-07-22T05:41:57;9.47;;;6.67;;
9102;SDS011;4587;51.434;6.788;2023-07-22T05:44:23;8.13;;;6.50;;
9102;SDS011;4587;51.434;6.788;2023-07-22T05:46:48;8.77;;;6.80;;
9102;SDS011;4587;51.434;6.788;2023-07-22T05:49:14;9.13;;;7.57;;
9102;SDS011;4587;51.434;6.788;2023-07-22T05:51:40;11.63;;;7.33;;
9102;SDS011;4587;51.434;6.788;2023-07-22T05:54:05;13.20;;;7.07;;
9102;SDS011;4587;51.434;6.788;2023-07-22T05:56:31;11.70;;;7.17;;
9102;SDS011;4587;51.434;6.788;2023-07-22T05:58:57;9.87;;;7.97;;
9102;SDS011;4587;51.434;6.788;2023-07-22T06:01:25;11.23;;;8.30;;
9102;SDS011;4587;51.434;6.788;2023-07-22T06:03:51;11.43;;;8.70;;
9102;SDS011;4587;51.434;6.788;2023-07-22T06:06:17;13.27;;;8.53;;
9102;SDS011;4587;51.434;6.788;2023-07-22T06:08:42;10.97;;;8.67;;
9102;SDS011;4587;51.434;6.788;2023-07-22T06:11:08;13.15;;;8.60;;
9102;SDS011;4587;51.434;6.788;2023-07-22T06:13:33;11.90;;;8.93;;
9102;SDS011;4587;51.434;6.788;2023-07-22T06:15:59;13.50;;;8.43;;
9102;SDS011;4587;51.434;6.788;2023-07-22T06:18:24;11.93;;;9.00;;
9102;SDS011;4587;51.434;6.788;2023-07-22T06:20:50;12.33;;;8.70;;
9102;SDS011;4587;51.434;6.788;2023-07-22T06:23:16;10.77;;;8.03;;
9102;SDS011;4587;51.434;6.788;2023-07-22T06:25:41;13.40;;;8.50;;
9102;SDS011;4587;51.434;6.788;2023-07-22T06:28:07;12.03;;;8.27;;
9102;SDS011;4587;51.434;6.788;2023-07-22T06:30:33;10.53;;;7.77;;
9102;SDS011;4587;51.434;6.788;2023-07-22T06:32:58;8.87;;;6.90;;
9102;SDS011;4587;51.434;6.788;2023-07-22T06:35:24;9.57;;;7.40;;
9102;SDS011;4587;51.434;6.788;2023-07-22T06:37:49;12.27;;;8.33;;
9102;SDS011;4587;51.434;6.788;2023-07-22T06:40:15;14.07;;;8.60;;
9102;SDS011;4587;51.434;6.788;2023-07-22T06:42:42;12.07;;;7.67;;
9102;SDS011;4587;51.434;6.788;2023-07-22T06:45:07;11.73;;;8.00;;
9102;SDS011;4587;51.434;6.788;2023-07-22T06:47:33;10.63;;;7.57;;
9102;SDS011;4587;51.434;6.788;2023-07-22T06:49:59;12.33;;;7.67;;
9102;SDS011;4587;51.434;6.788;2023-07-22T06:52:25;10.57;;;7.43;;
9102;SDS011;4587;51.434;6.788;2023-07-22T06:54:51;8.83;;;7.70;;
9102;SDS011;4587;51.434;6.788;2023-07-22T06:57:16;9.13;;;8.03;;
9102;SDS011;4587;51.434;6.788;2023-07-22T06:59:42;14.73;;;8.27;;
9102;SDS011;4587;51.434;6.788;2023-07-22T07:02:07;11.50;;;8.43;;
9102;SDS011;4587;51.434;6.788;2023-07-22T07:04:33;10.87;;;7.77;;
9102;SDS011;4587;51.434;6.788;2023-07-22T07:06:59;12.40;;;7.67;;
9102;SDS011;4587;51.434;6.788;2023-07-22T07:09:25;9.77;;;7.23;;
9102;SDS011;4587;51.434;6.788;2023-07-22T07:11:50;10.63;;;7.37;;
9102;SDS011;4587;51.434;6.788;2023-07-22T07:14:16;15.77;;;8.15;;
9102;SDS011;4587;51.434;6.788;2023-07-22T07:16:43;11.98;;;7.85;;
9102;SDS011;4587;51.434;6.788;2023-07-22T07:19:09;10.68;;;8.07;;
9102;SDS011;4587;51.434;6.788;2023-07-22T07:21:34;11.32;;;7.65;;
9102;SDS011;4587;51.434;6.788;2023-07-22T07:24:00;10.95;;;7.90;;
9102;SDS011;4587;51.434;6.788;2023-07-22T07:26:26;10.65;;;7.50;;
9102;SDS011;4587;51.434;6.788;2023-07-22T07:28:52;11.27;;;8.43;;
9102;SDS011;4587;51.434;6.788;2023-07-22T07:31:18;12.98;;;8.50;;
9102;SDS011;4587;51.434;6.788;2023-07-22T07:33:44;12.73;;;8.73;;
9102;SDS011;4587;51.434;6.788;2023-07-22T07:36:10;12.73;;;8.70;;
9102;SDS011;4587;51.434;6.788;2023-07-22T07:38:35;11.13;;;7.95;;
9102;SDS011;4587;51.434;6.788;2023-07-22T07:41:04;10.77;;;7.93;;
9102;SDS011;4587;51.434;6.788;2023-07-22T07:43:36;10.15;;;7.97;;
9102;SDS011;4587;51.434;6.788;2023-07-22T07:46:12;14.38;;;7.70;;
9102;SDS011;4587;51.434;6.788;2023-07-22T07:48:38;12.40;;;7.45;;
9102;SDS011;4587;51.434;6.788;2023-07-22T07:51:03;11.82;;;7.97;;
9102;SDS011;4587;51.434;6.788;2023-07-22T07:53:29;13.13;;;8.32;;
9102;SDS011;4587;51.434;6.788;2023-07-22T07:55:55;12.93;;;7.75;;
9102;SDS011;4587;51.434;6.788;2023-07-22T07:58:20;9.95;;;7.45;;
9102;SDS011;4587;51.434;6.788;2023-07-22T08:00:46;8.35;;;7.50;;
9102;SDS011;4587;51.434;6.788;2023-07-22T08:03:11;9.77;;;7.80;;
9102;SDS011;4587;51.434;6.788;2023-07-22T08:05:37;11.05;;;7.50;;
9102;SDS011;4587;51.434;6.788;2023-07-22T08:08:02;11.05;;;7.05;;
9102;SDS011;4587;51.434;6.788;2023-07-22T08:10:28;10.73;;;8.60;;
9102;SDS011;4587;51.434;6.788;2023-07-22T08:12:54;9.48;;;8.20;;
9102;SDS011;4587;51.434;6.788;2023-07-22T08:15:19;9.90;;;7.95;;
9102;SDS011;4587;51.434;6.788;2023-07-22T08:17:45;9.52;;;7.68;;
9102;SDS011;4587;51.434;6.788;2023-07-22T08:20:10;14.25;;;7.53;;
9102;SDS011;4587;51.434;6.788;2023-07-22T08:22:36;9.02;;;7.13;;
9102;SDS011;4587;51.434;6.788;2023-07-22T08:25:02;7.60;;;6.38;;
9102;SDS011;4587;51.434;6.788;2023-07-22T08:27:27;9.80;;;7.00;;
9102;SDS011;4587;51.434;6.788;2023-07-22T08:29:53;9.10;;;6.68;;
9102;SDS011;4587;51.434;6.788;2023-07-22T08:32:19;8.90;;;6.70;;
9102;SDS011;4587;51.434;6.788;2023-07-22T08:34:45;6.17;;;5.57;;
9102;SDS011;4587;51.434;6.788;2023-07-22T08:37:10;6.63;;;6.03;;
9102;SDS011;4587;51.434;6.788;2023-07-22T08:39:37;9.13;;;6.33;;
9102;SDS011;4587;51.434;6.788;2023-07-22T08:42:03;8.17;;;7.03;;
9102;SDS011;4587;51.434;6.788;2023-07-22T08:44:31;8.37;;;6.23;;
9102;SDS011;4587;51.434;6.788;2023-07-22T08:47:01;9.53;;;6.03;;
9102;SDS011;4587;51.434;6.788;2023-07-22T08:49:29;10.10;;;6.17;;
9102;SDS011;4587;51.434;6.788;2023-07-22T08:51:55;7.87;;;7.07;;
9102;SDS011;4587;51.434;6.788;2023-07-22T08:54:24;7.33;;;6.37;;
9102;SDS011;4587;51.434;6.788;2023-07-22T08:56:50;13.07;;;6.60;;
9102;SDS011;4587;51.434;6.788;2023-07-22T08:59:17;6.13;;;5.53;;
9102;SDS011;4587;51.434;6.788;2023-07-22T09:01:43;6.93;;;6.03;;
9102;SDS011;4587;51.434;6.788;2023-07-22T09:04:09;6.77;;;5.70;;
9102;SDS011;4587;51.434;6.788;2023-07-22T09:06:34;12.03;;;6.10;;
9102;SDS011;4587;51.434;6.788;2023-07-22T09:09:01;8.47;;;5.90;;
9102;SDS011;4587;51.434;6.788;2023-07-22T09:11:32;6.70;;;5.30;;
9102;SDS011;4587;51.434;6.788;2023-07-22T09:13:58;6.73;;;5.27;;
9102;SDS011;4587;51.434;6.788;2023-07-22T09:16:24;6.33;;;5.47;;
9102;SDS011;4587;51.434;6.788;2023-07-22T09:18:54;5.13;;;4.63;;
9102;SDS011;4587;51.434;6.788;2023-07-22T09:21:21;5.63;;;4.67;;
9102;SDS011;4587;51.434;6.788;2023-07-22T09:23:46;8.27;;;4.30;;
9102;SDS011;4587;51.434;6.788;2023-07-22T09:26:12;4.23;;;3.83;;
9102;SDS011;4587;51.434;6.788;2023-07-22T09:28:58;7.50;;;3.77;;
9102;SDS011;4587;51.434;6.788;2023-07-22T09:31:25;5.80;;;3.60;;
9102;SDS011;4587;51.434;6.788;2023-07-22T09:33:52;5.30;;;3.60;;
9102;SDS011;4587;51.434;6.788;2023-07-22T09:36:21;5.40;;;3.60;;
9102;SDS011;4587;51.434;6.788;2023-07-22T09:38:59;4.80;;;3.37;;
9102;SDS011;4587;51.434;6.788;2023-07-22T09:41:28;4.13;;;3.50;;
9102;SDS011;4587;51.434;6.788;2023-07-22T09:43:55;3.77;;;3.37;;
9102;SDS011;4587;51.434;6.788;2023-07-22T09:46:21;6.57;;;3.70;;
9102;SDS011;4587;51.434;6.788;2023-07-22T09:48:55;4.23;;;3.60;;
9102;SDS011;4587;51.434;6.788;2023-07-22T09:51:21;4.40;;;3.57;;
9102;SDS011;4587;51.434;6.788;2023-07-22T09:53:47;4.17;;;3.73;;
9102;SDS011;4587;51.434;6.788;2023-07-22T09:56:23;4.17;;;3.20;;
9102;SDS011;4587;51.434;6.788;2023-07-22T09:58:49;4.30;;;3.17;;
9102;SDS011;4587;51.434;6.788;2023-07-22T10:01:17;3.93;;;3.40;;
9102;SDS011;4587;51.434;6.788;2023-07-22T10:03:45;4.43;;;3.10;;
9102;SDS011;4587;51.434;6.788;2023-07-22T10:06:12;4.90;;;3.47;;
9102;SDS011;4587;51.434;6.788;2023-07-22T10:08:39;4.00;;;3.43;;
9102;SDS011;4587;51.434;6.788;2023-07-22T10:11:09;3.50;;;3.20;;
9102;SDS011;4587;51.434;6.788;2023-07-22T10:13:38;6.50;;;3.10;;
9102;SDS011;4587;51.434;6.788;2023-07-22T10:16:04;3.83;;;3.23;;
9102;SDS011;4587;51.434;6.788;2023-07-22T10:18:30;4.85;;;3.35;;
9102;SDS011;4587;51.434;6.788;2023-07-22T10:20:57;4.33;;;3.10;;
9102;SDS011;4587;51.434;6.788;2023-07-22T10:23:24;4.27;;;2.97;;
9102;SDS011;4587;51.434;6.788;2023-07-22T10:25:52;5.67;;;3.03;;
9102;SDS011;4587;51.434;6.788;2023-07-22T10:28:19;4.05;;;2.90;;
9102;SDS011;4587;51.434;6.788;2023-07-22T10:30:45;4.47;;;2.90;;
9102;SDS011;4587;51.434;6.788;2023-07-22T10:33:11;4.00;;;2.85;;
9102;SDS011;4587;51.434;6.788;2023-07-22T10:35:41;5.20;;;2.80;;
9102;SDS011;4587;51.434;6.788;2023-07-22T10:40:44;3.85;;;2.55;;
9102;SDS011;4587;51.434;6.788;2023-07-22T10:43:10;7.40;;;2.80;;
9102;SDS011;4587;51.434;6.788;2023-07-22T10:45:42;5.47;;;2.67;;
9102;SDS011;4587;51.434;6.788;2023-07-22T10:48:13;4.70;;;2.47;;
9102;SDS011;4587;51.434;6.788;2023-07-22T10:53:06;4.20;;;2.63;;
9102;SDS011;4587;51.434;6.788;2023-07-22T10:55:35;4.50;;;2.40;;
9102;SDS011;4587;51.434;6.788;2023-07-22T10:58:32;3.87;;;2.40;;
9102;SDS011;4587;51.434;6.788;2023-07-22T11:06:30;4.77;;;2.80;;
9102;SDS011;4587;51.434;6.788;2023-07-22T11:08:56;7.00;;;2.50;;
9102;SDS011;4587;51.434;6.788;2023-07-22T11:11:42;2.20;;;2.00;;
9102;SDS011;4587;51.434;6.788;2023-07-22T11:14:13;4.25;;;2.20;;
9102;SDS011;4587;51.434;6.788;2023-07-22T11:16:45;3.03;;;2.00;;
9102;SDS011;4587;51.434;6.788;2023-07-22T11:19:12;2.67;;;2.30;;
9102;SDS011;4587;51.434;6.788;2023-07-22T11:21:40;5.37;;;2.40;;
9102;SDS011;4587;51.434;6.788;2023-07-22T11:24:06;3.97;;;2.20;;
9102;SDS011;4587;51.434;6.788;2023-07-22T11:26:32;2.92;;;2.10;;
9102;SDS011;4587;51.434;6.788;2023-07-22T11:29:02;3.77;;;2.33;;
9102;SDS011;4587;51.434;6.788;2023-07-22T11:31:32;3.53;;;2.27;;
9102;SDS011;4587;51.434;6.788;2023-07-22T11:33:59;5.13;;;2.40;;
9102;SDS011;4587;51.434;6.788;2023-07-22T11:36:25;3.08;;;2.47;;
9102;SDS011;4587;51.434;6.788;2023-07-22T11:38:52;6.40;;;2.50;;
9102;SDS011;4587;51.434;6.788;2023-07-22T11:41:19;3.80;;;2.60;;
9102;SDS011;4587;51.434;6.788;2023-07-22T11:43:45;4.07;;;2.17;;
9102;SDS011;4587;51.434;6.788;2023-07-22T11:46:11;3.35;;;2.00;;
9102;SDS011;4587;51.434;6.788;2023-07-22T11:48:36;3.50;;;2.27;;
9102;SDS011;4587;51.434;6.788;2023-07-22T11:51:02;3.20;;;2.20;;
9102;SDS011;4587;51.434;6.788;2023-07-22T11:53:28;5.47;;;2.33;;
9102;SDS011;4587;51.434;6.788;2023-07-22T11:55:56;8.63;;;2.57;;
9102;SDS011;4587;51.434;6.788;2023-07-22T11:58:26;3.77;;;2.23;;
9102;SDS011;4587;51.434;6.788;2023-07-22T12:03:48;2.00;;;1.77;;
9102;SDS011;4587;51.434;6.788;2023-07-22T12:06:19;2.43;;;1.67;;
9102;SDS011;4587;51.434;6.788;2023-07-22T12:08:46;3.03;;;1.90;;
9102;SDS011;4587;51.434;6.788;2023-07-22T12:11:16;2.13;;;1.73;;
9102;SDS011;4587;51.434;6.788;2023-07-22T12:13:46;4.63;;;1.93;;
9102;SDS011;4587;51.434;6.788;2023-07-22T12:16:20;4.28;;;1.98;;
9102;SDS011;4587;51.434;6.788;2023-07-22T12:18:54;2.70;;;1.70;;
9102;SDS011;4587;51.434;6.788;2023-07-22T12:21:21;3.65;;;1.88;;
9102;SDS011;4587;51.434;6.788;2023-07-22T12:23:46;3.70;;;2.07;;
9102;SDS011;4587;51.434;6.788;2023-07-22T12:26:12;3.10;;;2.07;;
9102;SDS011;4587;51.434;6.788;2023-07-22T12:28:38;2.90;;;2.20;;
9102;SDS011;4587;51.434;6.788;2023-07-22T12:31:03;3.88;;;2.63;;
9102;SDS011;4587;51.434;6.788;2023-07-22T12:33:29;4.75;;;2.47;;
9102;SDS011;4587;51.434;6.788;2023-07-22T12:35:55;4.13;;;2.28;;
9102;SDS011;4587;51.434;6.788;2023-07-22T12:38:22;4.27;;;2.40;;
9102;SDS011;4587;51.434;6.788;2023-07-22T12:40:47;3.57;;;2.50;;
9102;SDS011;4587;51.434;6.788;2023-07-22T12:43:13;3.97;;;2.35;;
9102;SDS011;4587;51.434;6.788;2023-07-22T12:45:39;2.87;;;2.57;;
9102;SDS011;4587;51.434;6.788;2023-07-22T12:48:04;3.47;;;2.40;;
9102;SDS011;4587;51.434;6.788;2023-07-22T12:50:30;5.00;;;2.30;;
9102;SDS011;4587;51.434;6.788;2023-07-22T12:52:57;3.67;;;2.30;;
9102;SDS011;4587;51.434;6.788;2023-07-22T12:55:22;4.27;;;2.43;;
9102;SDS011;4587;51.434;6.788;2023-07-22T12:57:48;2.93;;;2.10;;
9102;SDS011;4587;51.434;6.788;2023-07-22T13:00:14;2.30;;;2.00;;
9102;SDS011;4587;51.434;6.788;2023-07-22T13:02:39;2.87;;;2.00;;
9102;SDS011;4587;51.434;6.788;2023-07-22T13:05:05;2.57;;;2.00;;
9102;SDS011;4587;51.434;6.788;2023-07-22T13:07:31;2.57;;;2.07;;
9102;SDS011;4587;51.434;6.788;2023-07-22T13:09:57;2.70;;;2.38;;
9102;SDS011;4587;51.434;6.788;2023-07-22T13:12:25;3.80;;;2.13;;
9102;SDS011;4587;51.434;6.788;2023-07-22T13:14:50;5.13;;;2.10;;
9102;SDS011;4587;51.434;6.788;2023-07-22T13:17:16;4.80;;;2.30;;
9102;SDS011;4587;51.434;6.788;2023-07-22T13:19:41;2.53;;;2.28;;
9102;SDS011;4587;51.434;6.788;2023-07-22T13:22:07;4.25;;;2.25;;
9102;SDS011;4587;51.434;6.788;2023-07-22T13:24:32;3.22;;;2.35;;
9102;SDS011;4587;51.434;6.788;2023-07-22T13:26:58;3.20;;;2.47;;
9102;SDS011;4587;51.434;6.788;2023-07-22T13:29:23;3.78;;;2.30;;
9102;SDS011;4587;51.434;6.788;2023-07-22T13:31:49;3.85;;;2.60;;
9102;SDS011;4587;51.434;6.788;2023-07-22T13:34:15;2.65;;;2.45;;
9102;SDS011;4587;51.434;6.788;2023-07-22T13:36:40;4.63;;;2.33;;
9102;SDS011;4587;51.434;6.788;2023-07-22T13:39:06;4.38;;;2.38;;
9102;SDS011;4587;51.434;6.788;2023-07-22T13:41:31;2.90;;;2.60;;
9102;SDS011;4587;51.434;6.788;2023-07-22T13:43:57;4.20;;;2.35;;
9102;SDS011;4587;51.434;6.788;2023-07-22T13:46:22;3.53;;;2.20;;
9102;SDS011;4587;51.434;6.788;2023-07-22T13:48:48;2.70;;;2.50;;
9102;SDS011;4587;51.434;6.788;2023-07-22T13:51:14;3.20;;;2.42;;
9102;SDS011;4587;51.434;6.788;2023-07-22T13:53:39;3.97;;;2.40;;
9102;SDS011;4587;51.434;6.788;2023-07-22T13:56:05;4.22;;;2.55;;
9102;SDS011;4587;51.434;6.788;2023-07-22T13:58:30;2.43;;;2.23;;
9102;SDS011;4587;51.434;6.788;2023-07-22T14:00:56;2.50;;;2.17;;
9102;SDS011;4587;51.434;6.788;2023-07-22T14:03:21;4.68;;;2.20;;
9102;SDS011;4587;51.434;6.788;2023-07-22T14:05:47;3.10;;;2.40;;
9102;SDS011;4587;51.434;6.788;2023-07-22T14:08:12;3.75;;;2.40;;
9102;SDS011;4587;51.434;6.788;2023-07-22T14:10:38;5.23;;;2.97;;
9102;SDS011;4587;51.434;6.788;2023-07-22T14:13:03;2.80;;;2.50;;
9102;SDS011;4587;51.434;6.788;2023-07-22T14:15:30;2.90;;;2.53;;
9102;SDS011;4587;51.434;6.788;2023-07-22T14:17:56;3.85;;;2.70;;
9102;SDS011;4587;51.434;6.788;2023-07-22T14:20:21;3.83;;;2.53;;
9102;SDS011;4587;51.434;6.788;2023-07-22T14:22:47;2.63;;;2.37;;
9102;SDS011;4587;51.434;6.788;2023-07-22T14:25:15;3.13;;;2.40;;
9102;SDS011;4587;51.434;6.788;2023-07-22T14:27:41;4.00;;;2.60;;
9102;SDS011;4587;51.434;6.788;2023-07-22T14:30:07;3.13;;;2.63;;
9102;SDS011;4587;51.434;6.788;2023-07-22T14:32:33;2.50;;;2.30;;
9102;SDS011;4587;51.434;6.788;2023-07-22T14:34:59;4.20;;;2.53;;
9102;SDS011;4587;51.434;6.788;2023-07-22T14:37:24;4.10;;;2.33;;
9102;SDS011;4587;51.434;6.788;2023-07-22T14:39:50;4.22;;;2.60;;
9102;SDS011;4587;51.434;6.788;2023-07-22T14:42:15;4.67;;;2.50;;
9102;SDS011;4587;51.434;6.788;2023-07-22T14:44:41;3.13;;;2.22;;
9102;SDS011;4587;51.434;6.788;2023-07-22T14:47:07;4.07;;;2.67;;
9102;SDS011;4587;51.434;6.788;2023-07-22T14:49:32;2.97;;;2.38;;
9102;SDS011;4587;51.434;6.788;2023-07-22T14:51:58;3.67;;;2.70;;
9102;SDS011;4587;51.434;6.788;2023-07-22T14:54:23;3.38;;;2.50;;
9102;SDS011;4587;51.434;6.788;2023-07-22T14:56:49;4.53;;;2.65;;
9102;SDS011;4587;51.434;6.788;2023-07-22T14:59:15;3.42;;;2.90;;
9102;SDS011;4587;51.434;6.788;2023-07-22T15:01:41;2.85;;;2.53;;
9102;SDS011;4587;51.434;6.788;2023-07-22T15:04:07;3.80;;;2.60;;
9102;SDS011;4587;51.434;6.788;2023-07-22T15:06:33;4.47;;;2.85;;
9102;SDS011;4587;51.434;6.788;2023-07-22T15:09:03;6.22;;;2.38;;
9102;SDS011;4587;51.434;6.788;2023-07-22T15:11:33;2.93;;;2.63;;
9102;SDS011;4587;51.434;6.788;2023-07-22T15:14:00;4.83;;;2.77;;
9102;SDS011;4587;51.434;6.788;2023-07-22T15:16:26;2.92;;;2.50;;
9102;SDS011;4587;51.434;6.788;2023-07-22T15:18:51;3.30;;;2.83;;
9102;SDS011;4587;51.434;6.788;2023-07-22T15:21:17;3.63;;;2.70;;